Time,TemperatureF,DewpointF,PressureIn,WindDirection,WindDirectionDegrees,WindSpeedMPH,WindSpeedGustMPH,Humidity,HourlyPrecipIn,Conditions,Clouds,dailyrainin,SoftwareType,DateUTC
2013-02-16 00:03:00,32.7,27.5,30.15,NW,315,0.0,0.0,81,0.00,,,0.00,WUHU216HW,2013-02-16 05:03:00,
2013-02-16 00:08:00,32.7,27.5,30.15,NW,315,0.0,0.0,81,0.00,,,0.00,WUHU216HW,2013-02-16 05:08:00,
2013-02-16 00:13:00,32.7,27.5,30.14,West,270,0.0,0.0,81,0.00,,,0.00,WUHU216HW,2013-02-16 05:13:00,
2013-02-16 00:18:00,32.7,27.8,30.14,NNW,338,0.0,0.0,82,0.00,,,0.00,WUHU216HW,2013-02-16 05:18:00,
2013-02-16 00:23:00,32.7,27.5,30.14,WNW,293,0.0,0.0,81,0.00,,,0.00,WUHU216HW,2013-02-16 05:23:00,
2013-02-16 00:28:00,32.7,27.5,30.14,NNE,23,0.0,0.0,81,0.00,,,0.00,WUHU216HW,2013-02-16 05:28:00,
2013-02-16 00:33:00,32.5,27.3,30.13,NNW,338,0.0,0.0,81,0.00,,,0.00,WUHU216HW,2013-02-16 05:33:00,
2013-02-16 00:38:00,32.3,27.3,30.13,NW,315,0.0,0.0,81,0.00,,,0.00,WUHU216HW,2013-02-16 05:38:00,
2013-02-16 00:43:00,32.3,27.2,30.13,NNW,338,0.0,0.0,81,0.00,,,0.00,WUHU216HW,2013-02-16 05:43:00,
2013-02-16 00:48:00,32.1,27.0,30.13,NNW,338,0.0,0.0,81,0.00,,,0.00,WUHU216HW,2013-02-16 05:48:00,
2013-02-16 00:53:00,32.1,27.0,30.13,NE,45,0.0,0.0,81,0.00,,,0.00,WUHU216HW,2013-02-16 05:53:00,
2013-02-16 00:58:00,31.8,26.7,30.13,NE,45,0.0,0.0,81,0.00,,,0.00,WUHU216HW,2013-02-16 05:58:00,
2013-02-16 01:03:00,31.8,26.7,30.13,NE,45,0.0,0.0,81,0.00,,,0.00,WUHU216HW,2013-02-16 06:03:00,
2013-02-16 01:08:00,31.8,26.7,30.13,NNE,23,0.0,0.0,81,0.00,,,0.00,WUHU216HW,2013-02-16 06:08:00,
2013-02-16 01:13:00,31.6,26.5,30.13,NNE,23,0.0,0.0,81,0.00,,,0.00,WUHU216HW,2013-02-16 06:13:00,
2013-02-16 01:18:00,31.6,26.5,30.12,NNE,23,0.0,0.0,81,0.00,,,0.00,WUHU216HW,2013-02-16 06:18:00,
2013-02-16 01:23:00,31.6,26.5,30.12,NNW,338,0.0,0.0,81,0.00,,,0.00,WUHU216HW,2013-02-16 06:23:00,
2013-02-16 01:28:00,31.6,26.5,30.12,NNW,338,0.0,0.0,81,0.00,,,0.00,WUHU216HW,2013-02-16 06:28:00,
2013-02-16 01:33:00,31.6,26.5,30.11,NNW,338,0.0,0.0,81,0.00,,,0.00,WUHU216HW,2013-02-16 06:33:00,
2013-02-16 01:38:00,31.6,26.5,30.11,NNE,23,0.0,0.0,81,0.00,,,0.00,WUHU216HW,2013-02-16 06:38:00,
2013-02-16 01:43:00,31.6,26.5,30.11,NW,315,0.0,0.0,81,0.00,,,0.00,WUHU216HW,2013-02-16 06:43:00,
2013-02-16 01:48:00,31.6,26.5,30.11,NW,315,0.0,0.0,81,0.00,,,0.00,WUHU216HW,2013-02-16 06:48:00,
2013-02-16 01:53:00,31.6,26.5,30.11,NW,315,0.0,0.0,81,0.00,,,0.00,WUHU216HW,2013-02-16 06:53:00,
2013-02-16 01:58:00,31.6,26.5,30.11,NW,315,0.0,0.0,81,0.00,,,0.00,WUHU216HW,2013-02-16 06:58:00,
2013-02-16 02:03:00,31.6,26.5,30.11,NW,315,0.0,0.0,81,0.00,,,0.00,WUHU216HW,2013-02-16 07:03:00,
2013-02-16 02:08:00,31.6,26.5,30.11,WNW,293,0.0,0.0,81,0.00,,,0.00,WUHU216HW,2013-02-16 07:08:00,
2013-02-16 02:13:00,31.6,26.5,30.11,WNW,293,0.0,0.0,81,0.00,,,0.00,WUHU216HW,2013-02-16 07:13:00,
2013-02-16 02:18:00,31.6,26.5,30.11,WNW,293,0.0,0.0,81,0.00,,,0.00,WUHU216HW,2013-02-16 07:18:00,
2013-02-16 02:23:00,31.6,26.5,30.11,NNW,338,0.0,1.5,81,0.00,,,0.00,WUHU216HW,2013-02-16 07:23:00,
2013-02-16 02:28:00,31.6,26.5,30.11,NW,315,0.0,1.5,81,0.00,,,0.00,WUHU216HW,2013-02-16 07:28:00,
2013-02-16 02:33:00,31.6,26.5,30.10,NNW,338,0.0,0.0,81,0.00,,,0.00,WUHU216HW,2013-02-16 07:33:00,
2013-02-16 02:38:00,31.6,26.5,30.11,WNW,293,0.0,0.0,81,0.00,,,0.00,WUHU216HW,2013-02-16 07:38:00,
2013-02-16 02:43:00,31.6,26.5,30.10,NW,315,0.0,0.0,81,0.00,,,0.00,WUHU216HW,2013-02-16 07:43:00,
2013-02-16 02:48:00,31.6,26.5,30.10,WNW,293,0.0,0.0,81,0.00,,,0.00,WUHU216HW,2013-02-16 07:48:00,
2013-02-16 02:53:00,31.4,26.3,30.10,North,0,0.0,0.0,81,0.00,,,0.00,WUHU216HW,2013-02-16 07:53:00,
2013-02-16 02:58:00,31.2,26.1,30.09,WNW,293,0.0,0.0,81,0.00,,,0.00,WUHU216HW,2013-02-16 07:58:00,
2013-02-16 03:03:00,31.2,26.1,30.09,NNW,338,0.0,0.0,81,0.00,,,0.00,WUHU216HW,2013-02-16 08:03:00,
2013-02-16 03:09:00,31.2,26.1,30.08,NNW,338,0.0,0.0,81,0.00,,,0.00,WUHU216HW,2013-02-16 08:09:00,
2013-02-16 03:14:00,31.2,26.1,30.08,NNW,338,0.0,0.0,81,0.00,,,0.00,WUHU216HW,2013-02-16 08:14:00,
2013-02-16 03:19:00,31.1,25.9,30.08,NNW,338,0.0,0.0,81,0.00,,,0.00,WUHU216HW,2013-02-16 08:19:00,
2013-02-16 03:24:00,31.1,25.9,30.08,NNW,338,0.0,0.0,81,0.00,,,0.00,WUHU216HW,2013-02-16 08:24:00,
2013-02-16 03:29:00,31.1,25.9,30.08,NNW,338,0.0,0.0,81,0.00,,,0.00,WUHU216HW,2013-02-16 08:29:00,
2013-02-16 03:34:00,30.9,25.8,30.08,WNW,293,1.7,1.7,81,0.00,,,0.00,WUHU216HW,2013-02-16 08:34:00,
2013-02-16 03:39:00,30.9,25.8,30.07,NW,315,0.0,1.7,81,0.00,,,0.00,WUHU216HW,2013-02-16 08:39:00,
2013-02-16 03:44:00,30.7,25.6,30.07,NW,315,0.0,0.0,81,0.00,,,0.00,WUHU216HW,2013-02-16 08:44:00,
2013-02-16 03:49:00,30.7,25.9,30.07,NW,315,0.0,0.0,82,0.00,,,0.00,WUHU216HW,2013-02-16 08:49:00,
2013-02-16 03:54:00,30.5,25.7,30.07,WSW,248,1.5,1.5,82,0.00,,,0.00,WUHU216HW,2013-02-16 08:54:00,
2013-02-16 03:59:00,30.3,25.5,30.07,WNW,293,0.0,1.5,82,0.00,,,0.00,WUHU216HW,2013-02-16 08:59:00,
2013-02-16 04:04:00,30.3,25.5,30.07,NW,315,0.0,1.5,82,0.00,,,0.00,WUHU216HW,2013-02-16 09:04:00,
2013-02-16 04:09:00,30.3,25.5,30.06,NNW,338,0.0,0.0,82,0.00,,,0.00,WUHU216HW,2013-02-16 09:09:00,
2013-02-16 04:14:00,30.3,25.5,30.06,NW,315,0.0,0.0,82,0.00,,,0.00,WUHU216HW,2013-02-16 09:14:00,
2013-02-16 04:19:00,30.5,25.7,30.07,NW,315,4.0,4.0,82,0.00,,,0.00,WUHU216HW,2013-02-16 09:19:00,
2013-02-16 04:24:00,30.5,25.7,30.07,NW,315,0.0,4.0,82,0.00,,,0.00,WUHU216HW,2013-02-16 09:24:00,
2013-02-16 04:29:00,30.5,25.7,30.07,NNW,338,0.0,0.0,82,0.00,,,0.00,WUHU216HW,2013-02-16 09:29:00,
2013-02-16 04:34:00,30.5,25.7,30.06,NNW,338,0.0,0.0,82,0.00,,,0.00,WUHU216HW,2013-02-16 09:34:00,
2013-02-16 04:39:00,30.5,25.7,30.06,NNW,338,0.0,0.0,82,0.00,,,0.00,WUHU216HW,2013-02-16 09:39:00,
2013-02-16 04:44:00,30.5,25.7,30.06,NNW,338,0.0,0.0,82,0.00,,,0.00,WUHU216HW,2013-02-16 09:44:00,
2013-02-16 04:49:00,30.5,25.7,30.07,NW,315,0.0,0.0,82,0.00,,,0.00,WUHU216HW,2013-02-16 09:49:00,
2013-02-16 04:54:00,30.5,25.7,30.06,NW,315,0.0,0.0,82,0.00,,,0.00,WUHU216HW,2013-02-16 09:54:00,
2013-02-16 04:59:00,30.5,25.7,30.06,NW,315,0.0,0.0,82,0.00,,,0.00,WUHU216HW,2013-02-16 09:59:00,
2013-02-16 05:04:00,30.5,25.7,30.06,NW,315,0.0,0.0,82,0.00,,,0.00,WUHU216HW,2013-02-16 10:04:00,
2013-02-16 05:09:00,30.7,26.2,30.06,NW,315,0.0,0.0,82,0.00,,,0.00,WUHU216HW,2013-02-16 10:09:00,
2013-02-16 05:14:00,30.5,26.0,30.06,NW,315,0.0,0.0,83,0.00,,,0.00,WUHU216HW,2013-02-16 10:14:00,
2013-02-16 05:19:00,30.5,26.0,30.06,NW,315,0.0,0.0,83,0.00,,,0.00,WUHU216HW,2013-02-16 10:19:00,
2013-02-16 05:24:00,30.5,26.0,30.06,NW,315,0.0,0.0,83,0.00,,,0.00,WUHU216HW,2013-02-16 10:24:00,
2013-02-16 05:29:00,30.5,26.0,30.06,NW,315,0.0,0.0,83,0.00,,,0.00,WUHU216HW,2013-02-16 10:29:00,
2013-02-16 05:34:00,30.5,26.0,30.06,NW,315,0.0,0.0,83,0.00,,,0.00,WUHU216HW,2013-02-16 10:34:00,
2013-02-16 05:39:00,30.5,26.0,30.06,NNW,338,0.0,0.0,83,0.00,,,0.00,WUHU216HW,2013-02-16 10:39:00,
2013-02-16 05:44:00,30.5,26.0,30.06,NW,315,0.0,0.0,83,0.00,,,0.00,WUHU216HW,2013-02-16 10:44:00,
2013-02-16 05:49:00,30.7,26.2,30.06,WNW,293,0.0,0.0,83,0.00,,,0.00,WUHU216HW,2013-02-16 10:49:00,
2013-02-16 05:54:00,30.7,26.2,30.07,North,0,0.0,0.0,83,0.00,,,0.00,WUHU216HW,2013-02-16 10:54:00,
2013-02-16 05:59:00,30.7,26.2,30.06,North,0,0.0,0.0,83,0.00,,,0.00,WUHU216HW,2013-02-16 10:59:00,
2013-02-16 06:04:00,30.7,26.2,30.06,NNW,338,0.0,0.0,83,0.00,,,0.00,WUHU216HW,2013-02-16 11:04:00,
2013-02-16 06:09:00,30.7,26.2,30.06,WNW,293,0.0,0.0,83,0.00,,,0.00,WUHU216HW,2013-02-16 11:09:00,
2013-02-16 06:14:00,30.7,26.2,30.06,NW,315,0.0,0.0,83,0.00,,,0.00,WUHU216HW,2013-02-16 11:14:00,
2013-02-16 06:19:00,30.7,26.2,30.06,NW,315,0.0,0.0,83,0.00,,,0.00,WUHU216HW,2013-02-16 11:19:00,
2013-02-16 06:24:00,30.7,26.2,30.06,NNW,338,0.0,0.0,83,0.00,,,0.00,WUHU216HW,2013-02-16 11:24:00,
2013-02-16 06:29:00,30.7,26.2,30.06,NW,315,0.0,0.0,83,0.00,,,0.00,WUHU216HW,2013-02-16 11:29:00,
2013-02-16 06:34:00,30.7,26.4,30.06,NNW,338,0.0,0.0,84,0.00,,,0.00,WUHU216HW,2013-02-16 11:34:00,
2013-02-16 06:39:00,30.7,26.4,30.06,West,270,0.0,0.0,84,0.00,,,0.00,WUHU216HW,2013-02-16 11:39:00,
2013-02-16 06:44:00,30.7,26.4,30.06,West,270,0.0,0.0,84,0.00,,,0.00,WUHU216HW,2013-02-16 11:44:00,
2013-02-16 06:49:00,30.7,26.4,30.06,West,270,0.0,0.0,84,0.00,,,0.00,WUHU216HW,2013-02-16 11:49:00,
2013-02-16 06:54:00,30.7,26.4,30.06,NW,315,0.0,0.0,84,0.00,,,0.00,WUHU216HW,2013-02-16 11:54:00,
2013-02-16 06:59:00,30.7,26.4,30.06,NW,315,0.0,0.0,84,0.00,,,0.00,WUHU216HW,2013-02-16 11:59:00,
2013-02-16 07:04:00,30.7,26.4,30.05,NW,315,0.0,0.0,84,0.00,,,0.00,WUHU216HW,2013-02-16 12:04:00,
2013-02-16 07:09:00,30.7,26.4,30.06,NNW,338,0.0,0.0,84,0.00,,,0.00,WUHU216HW,2013-02-16 12:09:00,
2013-02-16 07:14:00,30.7,26.4,30.05,NNW,338,0.0,0.0,84,0.00,,,0.00,WUHU216HW,2013-02-16 12:14:00,
2013-02-16 07:19:00,30.7,26.4,30.05,NNW,338,0.0,0.0,84,0.00,,,0.00,WUHU216HW,2013-02-16 12:19:00,
2013-02-16 07:24:00,30.7,26.4,30.05,NNW,338,0.0,0.0,84,0.00,,,0.00,WUHU216HW,2013-02-16 12:24:00,
2013-02-16 07:29:00,30.7,26.2,30.05,NNW,338,0.0,0.0,83,0.00,,,0.00,WUHU216HW,2013-02-16 12:29:00,
2013-02-16 07:34:00,30.7,26.2,30.05,NNW,338,0.0,0.0,83,0.00,,,0.00,WUHU216HW,2013-02-16 12:34:00,
2013-02-16 07:39:00,30.7,26.2,30.05,NNW,338,0.0,0.0,83,0.00,,,0.00,WUHU216HW,2013-02-16 12:39:00,
2013-02-16 07:44:00,30.7,26.2,30.04,NNW,338,0.0,0.0,83,0.00,,,0.00,WUHU216HW,2013-02-16 12:44:00,
2013-02-16 07:49:00,30.7,26.2,30.05,NNW,338,0.0,0.0,83,0.00,,,0.00,WUHU216HW,2013-02-16 12:49:00,
2013-02-16 07:54:00,30.7,26.2,30.05,North,0,0.0,0.0,83,0.00,,,0.00,WUHU216HW,2013-02-16 12:54:00,
2013-02-16 07:59:00,30.7,26.2,30.05,NNW,338,0.0,0.0,83,0.00,,,0.00,WUHU216HW,2013-02-16 12:59:00,
2013-02-16 08:04:00,30.7,26.2,30.05,WNW,293,0.0,0.0,83,0.00,,,0.00,WUHU216HW,2013-02-16 13:04:00,
2013-02-16 08:09:00,30.7,26.2,30.05,NW,315,0.0,0.0,83,0.00,,,0.00,WUHU216HW,2013-02-16 13:09:00,
2013-02-16 08:14:00,30.7,26.2,30.05,WNW,293,0.0,0.0,83,0.00,,,0.00,WUHU216HW,2013-02-16 13:14:00,
2013-02-16 08:19:00,30.7,26.2,30.05,West,270,0.0,0.0,83,0.00,,,0.00,WUHU216HW,2013-02-16 13:19:00,
2013-02-16 08:24:00,30.5,26.0,30.05,NNW,338,0.0,0.0,83,0.00,,,0.00,WUHU216HW,2013-02-16 13:24:00,
2013-02-16 08:29:00,30.3,25.5,30.05,NNW,338,0.0,0.0,82,0.00,,,0.00,WUHU216HW,2013-02-16 13:29:00,
2013-02-16 08:34:00,30.5,25.7,30.05,NNW,338,0.0,0.0,82,0.00,,,0.00,WUHU216HW,2013-02-16 13:34:00,
2013-02-16 08:39:00,30.5,25.7,30.05,WNW,293,0.0,0.0,82,0.00,,,0.00,WUHU216HW,2013-02-16 13:39:00,
2013-02-16 08:44:00,30.7,25.9,30.05,NNW,338,0.0,0.0,82,0.00,,,0.00,WUHU216HW,2013-02-16 13:44:00,
2013-02-16 08:49:00,30.7,25.6,30.05,NNW,338,0.0,2.2,81,0.00,,,0.00,WUHU216HW,2013-02-16 13:49:00,
2013-02-16 08:54:00,30.9,25.8,30.06,NW,315,0.0,2.2,81,0.00,,,0.00,WUHU216HW,2013-02-16 13:54:00,
2013-02-16 08:59:00,31.1,25.9,30.06,NW,315,0.6,0.6,81,0.00,,,0.00,WUHU216HW,2013-02-16 13:59:00,
2013-02-16 09:04:00,31.2,25.8,30.05,NNW,338,0.0,0.8,80,0.00,,,0.00,WUHU216HW,2013-02-16 14:04:00,
2013-02-16 09:09:00,31.2,25.8,30.06,NNW,338,0.0,3.3,80,0.00,,,0.00,WUHU216HW,2013-02-16 14:09:00,
2013-02-16 09:14:00,31.2,25.8,30.05,NNW,338,0.0,3.3,80,0.00,,,0.00,WUHU216HW,2013-02-16 14:14:00,
2013-02-16 09:19:00,31.2,25.5,30.05,NW,315,0.0,0.0,79,0.00,,,0.00,WUHU216HW,2013-02-16 14:19:00,
2013-02-16 09:24:00,31.4,25.7,30.05,WSW,248,0.0,4.9,79,0.00,,,0.00,WUHU216HW,2013-02-16 14:24:00,
2013-02-16 09:29:00,31.6,25.5,30.05,NW,315,0.0,4.9,78,0.00,,,0.00,WUHU216HW,2013-02-16 14:29:00,
2013-02-16 09:34:00,31.6,25.9,30.05,NNW,338,0.0,0.0,79,0.00,,,0.00,WUHU216HW,2013-02-16 14:34:00,
2013-02-16 09:39:00,31.8,25.7,30.04,NW,315,0.0,1.1,78,0.00,,,0.00,WUHU216HW,2013-02-16 14:39:00,
2013-02-16 09:44:00,31.8,25.4,30.04,NNW,338,0.0,5.8,77,0.00,,,0.00,WUHU216HW,2013-02-16 14:44:00,
2013-02-16 09:49:00,31.8,25.4,30.04,NNW,338,2.0,5.8,77,0.00,,,0.00,WUHU216HW,2013-02-16 14:49:00,
2013-02-16 09:54:00,31.8,25.4,30.04,NW,315,0.0,2.0,77,0.00,,,0.00,WUHU216HW,2013-02-16 14:54:00,
2013-02-16 09:59:00,31.8,25.1,30.04,NW,315,0.0,2.0,76,0.00,,,0.00,WUHU216HW,2013-02-16 14:59:00,
2013-02-16 10:04:00,31.8,25.1,30.04,NW,315,0.0,5.3,76,0.00,,,0.00,WUHU216HW,2013-02-16 15:04:00,
2013-02-16 10:09:00,31.8,25.1,30.04,NW,315,0.0,5.3,76,0.00,,,0.00,WUHU216HW,2013-02-16 15:09:00,
2013-02-16 10:14:00,32.0,25.3,30.04,NNW,338,0.0,0.0,76,0.00,,,0.00,WUHU216HW,2013-02-16 15:14:00,
2013-02-16 10:19:00,32.1,25.4,30.04,NNW,338,0.0,7.3,76,0.00,,,0.00,WUHU216HW,2013-02-16 15:19:00,
2013-02-16 10:24:00,32.1,25.4,30.04,NNW,338,0.0,7.3,76,0.00,,,0.00,WUHU216HW,2013-02-16 15:24:00,
2013-02-16 10:29:00,32.3,25.6,30.04,NW,315,0.0,6.0,76,0.00,,,0.00,WUHU216HW,2013-02-16 15:29:00,
2013-02-16 10:34:00,32.5,25.7,30.04,WNW,293,3.8,6.0,76,0.00,,,0.00,WUHU216HW,2013-02-16 15:34:00,
2013-02-16 10:39:00,32.5,25.4,30.03,NNW,338,2.6,6.4,75,0.00,,,0.00,WUHU216HW,2013-02-16 15:39:00,
2013-02-16 10:44:00,32.5,25.4,30.03,WNW,293,0.0,6.4,75,0.00,,,0.00,WUHU216HW,2013-02-16 15:44:00,
2013-02-16 10:49:00,32.5,25.4,30.04,WNW,293,0.0,0.0,75,0.00,,,0.00,WUHU216HW,2013-02-16 15:49:00,
2013-02-16 10:54:00,32.5,25.4,30.04,WNW,293,0.0,3.1,75,0.00,,,0.00,WUHU216HW,2013-02-16 15:54:00,
2013-02-16 10:59:00,32.5,25.4,30.03,NW,315,3.8,3.8,75,0.00,,,0.00,WUHU216HW,2013-02-16 15:59:00,
2013-02-16 11:04:00,32.5,25.4,30.04,NW,315,0.0,3.8,75,0.00,,,0.00,WUHU216HW,2013-02-16 16:04:00,
2013-02-16 11:09:00,32.7,25.6,30.04,NW,315,0.0,2.4,75,0.00,,,0.00,WUHU216HW,2013-02-16 16:09:00,
2013-02-16 11:14:00,32.7,25.6,30.04,NW,315,0.0,0.0,75,0.00,,,0.00,WUHU216HW,2013-02-16 16:14:00,
2013-02-16 11:19:00,32.9,25.7,30.03,WNW,293,0.0,0.0,75,0.00,,,0.00,WUHU216HW,2013-02-16 16:19:00,
2013-02-16 11:24:00,32.7,25.3,30.04,North,0,0.0,0.0,74,0.00,,,0.00,WUHU216HW,2013-02-16 16:24:00,
2013-02-16 11:29:00,32.5,25.1,30.03,NNW,338,0.0,1.3,74,0.00,,,0.00,WUHU216HW,2013-02-16 16:29:00,
2013-02-16 11:34:00,32.7,25.3,30.03,NNW,338,0.0,1.3,74,0.00,,,0.00,WUHU216HW,2013-02-16 16:34:00,
2013-02-16 11:39:00,32.7,25.3,30.03,WNW,293,0.0,0.0,74,0.00,,,0.00,WUHU216HW,2013-02-16 16:39:00,
2013-02-16 11:44:00,32.9,25.4,30.03,WNW,293,0.0,0.0,74,0.00,,,0.00,WUHU216HW,2013-02-16 16:44:00,
2013-02-16 11:49:00,32.9,25.4,30.03,NW,315,0.0,1.3,74,0.00,,,0.00,WUHU216HW,2013-02-16 16:49:00,
2013-02-16 11:54:00,33.0,25.6,30.03,NW,315,0.0,1.3,74,0.00,,,0.00,WUHU216HW,2013-02-16 16:54:00,
2013-02-16 11:59:00,33.0,25.3,30.02,North,0,0.0,0.0,73,0.00,,,0.00,WUHU216HW,2013-02-16 16:59:00,
2013-02-16 12:04:00,33.0,25.3,30.03,NNW,338,0.0,0.0,72,0.00,,,0.00,WUHU216HW,2013-02-16 17:04:00,
2013-02-16 12:09:00,33.0,24.9,30.03,NNW,338,0.0,0.4,72,0.02,,,0.02,WUHU216HW,2013-02-16 17:09:00,
2013-02-16 12:14:00,32.9,24.8,30.03,North,0,0.0,13.8,72,0.02,,,0.02,WUHU216HW,2013-02-16 17:14:00,
2013-02-16 12:19:00,32.7,24.6,30.03,NNW,338,2.0,13.8,72,0.02,,,0.02,WUHU216HW,2013-02-16 17:19:00,
2013-02-16 12:24:00,32.1,24.1,30.03,NNW,338,3.5,3.5,72,0.02,,,0.02,WUHU216HW,2013-02-16 17:24:00,
2013-02-16 12:29:00,31.8,23.8,30.03,West,270,0.0,3.5,72,0.02,,,0.02,WUHU216HW,2013-02-16 17:29:00,
2013-02-16 12:34:00,31.8,24.1,30.03,NNW,338,0.0,0.0,73,0.02,,,0.02,WUHU216HW,2013-02-16 17:34:00,
2013-02-16 12:39:00,31.8,23.8,30.02,North,0,0.0,6.0,72,0.02,,,0.02,WUHU216HW,2013-02-16 17:39:00,
2013-02-16 12:44:00,31.8,23.8,30.03,WNW,293,0.0,6.0,72,0.02,,,0.02,WUHU216HW,2013-02-16 17:44:00,
2013-02-16 12:49:00,31.6,23.6,30.03,WNW,293,3.5,5.5,72,0.02,,,0.02,WUHU216HW,2013-02-16 17:49:00,
2013-02-16 12:54:00,31.2,23.2,30.03,NW,315,0.0,4.4,72,0.02,,,0.02,WUHU216HW,2013-02-16 17:54:00,
2013-02-16 13:00:00,31.2,23.2,30.02,NW,315,0.0,5.1,72,0.02,,,0.02,WUHU216HW,2013-02-16 18:00:00,
2013-02-16 13:05:00,31.2,23.6,30.02,NNW,338,5.5,5.5,73,0.00,,,0.02,WUHU216HW,2013-02-16 18:05:00,
2013-02-16 13:10:00,31.2,23.6,30.02,NW,315,11.8,11.8,73,0.00,,,0.02,WUHU216HW,2013-02-16 18:10:00,
2013-02-16 13:15:00,31.1,23.4,30.02,NNW,338,0.0,11.8,73,0.00,,,0.02,WUHU216HW,2013-02-16 18:15:00,
2013-02-16 13:20:00,31.1,23.7,30.02,WNW,293,0.0,8.5,74,0.00,,,0.02,WUHU216HW,2013-02-16 18:20:00,
2013-02-16 13:25:00,31.2,23.6,30.01,NNW,338,0.0,8.5,73,0.00,,,0.02,WUHU216HW,2013-02-16 18:25:00,
2013-02-16 13:30:00,31.2,23.9,30.02,NNW,338,0.0,6.7,74,0.00,,,0.02,WUHU216HW,2013-02-16 18:30:00,
2013-02-16 13:35:00,31.6,23.9,30.02,NNW,338,0.0,3.5,73,0.00,,,0.02,WUHU216HW,2013-02-16 18:35:00,
2013-02-16 13:40:00,31.6,23.9,30.01,West,270,5.8,5.8,73,0.00,,,0.02,WUHU216HW,2013-02-16 18:40:00,
2013-02-16 13:45:00,31.4,23.7,30.02,North,0,6.7,6.7,73,0.00,,,0.02,WUHU216HW,2013-02-16 18:45:00,
2013-02-16 13:50:00,31.1,23.1,30.02,NW,315,0.0,6.9,72,0.00,,,0.02,WUHU216HW,2013-02-16 18:50:00,
2013-02-16 13:55:00,30.9,22.9,30.01,NNW,338,1.1,6.9,72,0.00,,,0.02,WUHU216HW,2013-02-16 18:55:00,
2013-02-16 14:00:00,31.2,22.9,30.01,NNW,338,0.0,1.1,71,0.00,,,0.02,WUHU216HW,2013-02-16 19:00:00,
2013-02-16 14:05:00,31.2,22.9,30.01,NNW,338,1.3,15.8,71,0.00,,,0.02,WUHU216HW,2013-02-16 19:05:00,
2013-02-16 14:10:00,31.6,22.6,30.01,NW,315,0.0,15.8,69,0.00,,,0.02,WUHU216HW,2013-02-16 19:10:00,
2013-02-16 14:15:00,31.6,21.9,30.01,WNW,293,0.0,10.0,67,0.00,,,0.02,WUHU216HW,2013-02-16 19:15:00,
2013-02-16 14:20:00,31.8,21.3,30.01,NNW,338,2.9,10.0,65,0.00,,,0.02,WUHU216HW,2013-02-16 19:20:00,
2013-02-16 14:25:00,31.8,21.0,30.01,NNW,338,0.0,2.9,64,0.00,,,0.02,WUHU216HW,2013-02-16 19:25:00,
2013-02-16 14:30:00,32.0,20.8,30.01,NW,315,4.9,4.9,63,0.00,,,0.02,WUHU216HW,2013-02-16 19:30:00,
2013-02-16 14:35:00,32.3,20.4,30.01,NNW,338,0.0,8.2,61,0.00,,,0.02,WUHU216HW,2013-02-16 19:35:00,
2013-02-16 14:40:00,32.5,20.6,30.01,NW,315,7.1,8.2,61,0.00,,,0.02,WUHU216HW,2013-02-16 19:40:00,
2013-02-16 14:45:00,32.7,20.4,30.01,NNW,338,3.8,7.1,60,0.00,,,0.02,WUHU216HW,2013-02-16 19:45:00,
2013-02-16 14:50:00,32.7,20.4,30.01,West,270,0.0,3.8,60,0.00,,,0.02,WUHU216HW,2013-02-16 19:50:00,
2013-02-16 14:55:00,32.7,20.4,30.01,NW,315,7.8,7.8,60,0.00,,,0.02,WUHU216HW,2013-02-16 19:55:00,
2013-02-16 15:00:00,32.7,19.9,30.01,NNW,338,0.0,7.8,59,0.00,,,0.02,WUHU216HW,2013-02-16 20:00:00,
2013-02-16 15:05:00,32.7,19.5,30.01,NW,315,0.0,10.0,58,0.00,,,0.02,WUHU216HW,2013-02-16 20:05:00,
2013-02-16 15:10:00,32.7,19.5,30.01,WNW,293,0.0,10.0,58,0.00,,,0.02,WUHU216HW,2013-02-16 20:10:00,
2013-02-16 15:15:00,32.7,19.1,30.01,NW,315,0.0,0.0,57,0.00,,,0.02,WUHU216HW,2013-02-16 20:15:00,
2013-02-16 15:20:00,32.5,18.9,30.01,NNW,338,0.0,4.4,56,0.00,,,0.02,WUHU216HW,2013-02-16 20:20:00,
2013-02-16 15:25:00,32.5,18.5,30.01,NW,315,6.4,6.4,56,0.00,,,0.02,WUHU216HW,2013-02-16 20:25:00,
2013-02-16 15:30:00,32.5,18.5,30.01,NNW,338,0.0,6.4,56,0.00,,,0.02,WUHU216HW,2013-02-16 20:30:00,
2013-02-16 15:35:00,32.1,18.1,30.01,NNW,338,0.0,0.0,56,0.00,,,0.02,WUHU216HW,2013-02-16 20:35:00,
2013-02-16 15:40:00,32.1,18.1,30.01,WNW,293,0.0,0.0,56,0.00,,,0.02,WUHU216HW,2013-02-16 20:40:00,
2013-02-16 15:45:00,32.1,17.7,30.01,NNW,338,0.0,0.0,55,0.00,,,0.02,WUHU216HW,2013-02-16 20:45:00,
2013-02-16 15:50:00,31.8,17.4,30.01,WNW,293,0.0,0.0,55,0.00,,,0.02,WUHU216HW,2013-02-16 20:50:00,
2013-02-16 15:55:00,31.8,17.4,30.01,North,0,0.0,0.0,55,0.00,,,0.02,WUHU216HW,2013-02-16 20:55:00,
2013-02-16 16:00:00,31.8,17.4,30.01,WNW,293,4.2,7.1,55,0.00,,,0.02,WUHU216HW,2013-02-16 21:00:00,
2013-02-16 16:05:00,32.1,17.7,30.01,NNW,338,9.6,9.6,55,0.00,,,0.02,WUHU216HW,2013-02-16 21:05:00,
2013-02-16 16:10:00,31.8,16.9,30.02,NW,315,4.0,9.6,54,0.00,,,0.02,WUHU216HW,2013-02-16 21:10:00,
2013-02-16 16:15:00,31.6,16.3,30.02,NNW,338,0.0,9.6,53,0.00,,,0.02,WUHU216HW,2013-02-16 21:15:00,
2013-02-16 16:20:00,31.6,16.8,30.02,NNW,338,2.9,8.5,54,0.00,,,0.02,WUHU216HW,2013-02-16 21:20:00,
2013-02-16 16:25:00,31.2,16.4,30.02,NW,315,0.0,4.6,54,0.00,,,0.02,WUHU216HW,2013-02-16 21:25:00,
2013-02-16 16:30:00,31.1,16.3,30.02,NW,315,0.0,4.6,54,0.00,,,0.02,WUHU216HW,2013-02-16 21:30:00,
2013-02-16 16:35:00,30.9,15.7,30.02,NNW,338,0.0,1.5,53,0.00,,,0.02,WUHU216HW,2013-02-16 21:35:00,
2013-02-16 16:40:00,30.9,16.1,30.03,WNW,293,8.5,8.5,54,0.00,,,0.02,WUHU216HW,2013-02-16 21:40:00,
2013-02-16 16:45:00,30.7,15.5,30.03,WNW,293,6.4,8.5,53,0.00,,,0.02,WUHU216HW,2013-02-16 21:45:00,
2013-02-16 16:50:00,30.0,14.9,30.03,WNW,293,0.0,13.1,53,0.00,,,0.02,WUHU216HW,2013-02-16 21:50:00,
2013-02-16 16:55:00,29.8,14.7,30.03,NW,315,0.0,13.1,53,0.00,,,0.02,WUHU216HW,2013-02-16 21:55:00,
2013-02-16 17:00:00,29.4,14.4,30.03,NNW,338,9.8,9.8,53,0.00,,,0.02,WUHU216HW,2013-02-16 22:00:00,
2013-02-16 17:05:00,29.1,14.9,30.04,NNW,338,0.0,11.8,55,0.00,,,0.02,WUHU216HW,2013-02-16 22:05:00,
2013-02-16 17:10:00,28.7,14.5,30.04,NNW,338,6.7,11.8,55,0.00,,,0.02,WUHU216HW,2013-02-16 22:10:00,
2013-02-16 17:15:00,28.2,14.5,30.04,NW,315,13.1,13.1,56,0.00,,,0.02,WUHU216HW,2013-02-16 22:15:00,
2013-02-16 17:20:00,28.2,14.5,30.04,WNW,293,9.3,13.1,56,0.00,,,0.02,WUHU216HW,2013-02-16 22:20:00,
2013-02-16 17:25:00,28.2,14.5,30.04,West,270,0.0,13.1,56,0.00,,,0.02,WUHU216HW,2013-02-16 22:25:00,
2013-02-16 17:30:00,28.2,14.5,30.04,NNW,338,0.0,6.0,56,0.00,,,0.02,WUHU216HW,2013-02-16 22:30:00,
2013-02-16 17:35:00,28.0,14.3,30.04,NW,315,0.0,6.0,56,0.00,,,0.02,WUHU216HW,2013-02-16 22:35:00,
2013-02-16 17:40:00,28.0,13.9,30.04,WNW,293,0.0,0.0,55,0.00,,,0.02,WUHU216HW,2013-02-16 22:40:00,
2013-02-16 17:45:00,28.0,13.9,30.04,NNW,338,0.0,0.0,55,0.00,,,0.02,WUHU216HW,2013-02-16 22:45:00,
2013-02-16 17:50:00,28.0,13.9,30.04,NW,315,0.0,0.0,55,0.00,,,0.02,WUHU216HW,2013-02-16 22:50:00,
2013-02-16 17:55:00,28.0,13.9,30.05,NNW,338,2.0,2.0,55,0.00,,,0.02,WUHU216HW,2013-02-16 22:55:00,
2013-02-16 18:00:00,27.6,13.5,30.05,NNE,23,0.0,9.1,55,0.00,,,0.02,WUHU216HW,2013-02-16 23:00:00,
2013-02-16 18:05:00,27.6,13.5,30.05,North,0,0.0,9.1,55,0.00,,,0.02,WUHU216HW,2013-02-16 23:05:00,
2013-02-16 18:10:00,27.5,13.3,30.05,NNW,338,2.2,6.4,56,0.00,,,0.02,WUHU216HW,2013-02-16 23:10:00,
2013-02-16 18:15:00,27.3,13.6,30.05,WNW,293,6.7,6.7,56,0.00,,,0.02,WUHU216HW,2013-02-16 23:15:00,
2013-02-16 18:20:00,27.1,13.8,30.05,NNW,338,4.6,6.7,57,0.00,,,0.02,WUHU216HW,2013-02-16 23:20:00,
2013-02-16 18:25:00,26.7,15.0,30.05,WNW,293,0.0,6.7,61,0.00,,,0.02,WUHU216HW,2013-02-16 23:25:00,
2013-02-16 18:30:00,26.4,15.0,30.06,West,270,0.0,5.8,62,0.00,,,0.02,WUHU216HW,2013-02-16 23:30:00,
2013-02-16 18:35:00,26.2,15.6,30.06,WNW,293,2.6,5.8,64,0.00,,,0.02,WUHU216HW,2013-02-16 23:35:00,
2013-02-16 18:40:00,25.8,15.6,30.06,NNW,338,0.0,5.8,65,0.00,,,0.02,WUHU216HW,2013-02-16 23:40:00,
2013-02-16 18:45:00,25.8,15.6,30.06,NW,315,0.0,2.6,65,0.00,,,0.02,WUHU216HW,2013-02-16 23:45:00,
2013-02-16 18:50:00,25.7,15.8,30.06,NW,315,2.0,4.2,66,0.00,,,0.02,WUHU216HW,2013-02-16 23:50:00,
2013-02-16 18:55:00,25.8,15.9,30.06,NNW,338,0.0,4.2,66,0.00,,,0.02,WUHU216HW,2013-02-16 23:55:00,
2013-02-16 19:00:00,25.8,15.9,30.07,NW,315,0.0,0.0,66,0.00,,,0.02,WUHU216HW,2013-02-17 00:00:00,
2013-02-16 19:05:00,25.8,15.6,30.06,NW,315,7.1,7.1,65,0.00,,,0.02,WUHU216HW,2013-02-17 00:05:00,
2013-02-16 19:10:00,26.0,15.4,30.07,NW,315,0.0,7.1,64,0.00,,,0.02,WUHU216HW,2013-02-17 00:10:00,
2013-02-16 19:15:00,26.2,15.6,30.07,North,0,0.0,0.0,64,0.00,,,0.02,WUHU216HW,2013-02-17 00:15:00,
2013-02-16 19:20:00,26.2,15.6,30.07,NNW,338,0.0,0.0,64,0.00,,,0.02,WUHU216HW,2013-02-17 00:20:00,
2013-02-16 19:25:00,26.2,15.6,30.08,NNW,338,0.0,6.4,64,0.00,,,0.02,WUHU216HW,2013-02-17 00:25:00,
2013-02-16 19:30:00,26.2,15.9,30.07,NNW,338,0.0,6.4,65,0.00,,,0.02,WUHU216HW,2013-02-17 00:30:00,
2013-02-16 19:35:00,26.0,16.1,30.07,NNW,338,0.0,0.0,66,0.00,,,0.02,WUHU216HW,2013-02-17 00:35:00,
2013-02-16 19:40:00,25.8,15.9,30.07,NNW,338,0.0,5.8,66,0.00,,,0.02,WUHU216HW,2013-02-17 00:40:00,
2013-02-16 19:45:00,25.8,15.9,30.07,NW,315,6.2,6.2,66,0.00,,,0.02,WUHU216HW,2013-02-17 00:45:00,
2013-02-16 19:50:00,25.8,15.6,30.07,NW,315,4.4,6.2,65,0.00,,,0.02,WUHU216HW,2013-02-17 00:50:00,
2013-02-16 19:55:00,25.8,15.6,30.08,NNW,338,0.0,6.9,65,0.00,,,0.02,WUHU216HW,2013-02-17 00:55:00,
2013-02-16 20:00:00,25.8,15.6,30.08,North,0,0.0,6.9,65,0.00,,,0.02,WUHU216HW,2013-02-17 01:00:00,
2013-02-16 20:05:00,25.8,15.6,30.07,NNW,338,0.0,0.0,65,0.00,,,0.02,WUHU216HW,2013-02-17 01:05:00,
2013-02-16 20:10:00,25.8,15.6,30.08,NW,315,5.3,5.3,65,0.00,,,0.02,WUHU216HW,2013-02-17 01:10:00,
2013-02-16 20:15:00,25.5,16.3,30.09,WNW,293,11.1,11.1,68,0.00,,,0.02,WUHU216HW,2013-02-17 01:15:00,
2013-02-16 20:20:00,24.8,16.9,30.09,NNW,338,0.0,11.1,72,0.00,,,0.02,WUHU216HW,2013-02-17 01:20:00,
2013-02-16 20:25:00,24.0,16.6,30.09,WNW,293,5.5,11.1,73,0.00,,,0.02,WUHU216HW,2013-02-17 01:25:00,
2013-02-16 20:30:00,23.7,16.6,30.09,West,270,0.0,5.5,74,0.00,,,0.02,WUHU216HW,2013-02-17 01:30:00,
2013-02-16 20:35:00,23.5,16.7,30.09,WNW,293,0.0,5.5,75,0.00,,,0.02,WUHU216HW,2013-02-17 01:35:00,
2013-02-16 20:41:00,23.3,16.8,30.09,NNW,338,0.0,0.0,76,0.00,,,0.02,WUHU216HW,2013-02-17 01:41:00,
2013-02-16 20:46:00,23.3,17.2,30.09,North,0,0.0,0.0,77,0.00,,,0.02,WUHU216HW,2013-02-17 01:46:00,
2013-02-16 20:51:00,23.1,17.0,30.09,North,0,0.0,0.0,77,0.00,,,0.02,WUHU216HW,2013-02-17 01:51:00,
2013-02-16 20:56:00,23.1,17.3,30.10,NNW,338,0.0,5.8,78,0.00,,,0.02,WUHU216HW,2013-02-17 01:56:00,
2013-02-16 21:01:00,23.1,17.3,30.10,NW,315,6.0,6.0,78,0.00,,,0.02,WUHU216HW,2013-02-17 02:01:00,
2013-02-16 21:06:00,23.0,17.4,30.10,NNW,338,0.0,6.0,79,0.00,,,0.02,WUHU216HW,2013-02-17 02:06:00,
2013-02-16 21:11:00,22.8,17.2,30.10,North,0,0.0,8.0,79,0.00,,,0.02,WUHU216HW,2013-02-17 02:11:00,
2013-02-16 21:16:00,22.8,17.2,30.10,NNW,338,0.0,8.0,79,0.00,,,0.02,WUHU216HW,2013-02-17 02:16:00,
2013-02-16 21:21:00,22.8,17.6,30.09,SW,225,4.2,6.2,80,0.00,,,0.02,WUHU216HW,2013-02-17 02:21:00,
2013-02-16 21:26:00,22.6,17.4,30.10,NW,315,4.2,6.4,80,0.00,,,0.02,WUHU216HW,2013-02-17 02:26:00,
2013-02-16 21:31:00,22.8,17.2,30.10,NNW,338,0.0,6.4,79,0.00,,,0.02,WUHU216HW,2013-02-17 02:31:00,
2013-02-16 21:36:00,22.8,17.2,30.10,NNW,338,8.9,8.9,79,0.00,,,0.02,WUHU216HW,2013-02-17 02:36:00,
2013-02-16 21:41:00,22.8,16.9,30.10,WSW,248,6.4,8.9,78,0.00,,,0.02,WUHU216HW,2013-02-17 02:41:00,
2013-02-16 21:46:00,22.8,16.6,30.10,NW,315,10.2,10.2,77,0.00,,,0.02,WUHU216HW,2013-02-17 02:46:00,
2013-02-16 21:51:00,22.8,16.6,30.10,NW,315,8.0,10.2,77,0.00,,,0.02,WUHU216HW,2013-02-17 02:51:00,
2013-02-16 21:56:00,23.0,16.5,30.10,NNW,338,0.0,10.2,76,0.00,,,0.02,WUHU216HW,2013-02-17 02:56:00,
2013-02-16 22:01:00,23.0,16.2,30.10,NNW,338,0.0,3.5,75,0.00,,,0.02,WUHU216HW,2013-02-17 03:01:00,
2013-02-16 22:06:00,23.0,15.9,30.11,NW,315,0.0,5.1,74,0.00,,,0.02,WUHU216HW,2013-02-17 03:06:00,
2013-02-16 22:11:00,23.0,15.6,30.11,NW,315,0.0,5.1,73,0.00,,,0.02,WUHU216HW,2013-02-17 03:11:00,
2013-02-16 22:16:00,23.0,15.6,30.11,NNW,338,0.0,1.7,73,0.00,,,0.02,WUHU216HW,2013-02-17 03:16:00,
2013-02-16 22:21:00,23.0,15.6,30.11,WNW,293,0.0,0.0,73,0.00,,,0.02,WUHU216HW,2013-02-17 03:21:00,
2013-02-16 22:26:00,23.0,15.3,30.11,WNW,293,5.5,5.5,72,0.00,,,0.02,WUHU216HW,2013-02-17 03:26:00,
2013-02-16 22:31:00,23.1,15.1,30.11,NNW,338,0.0,5.5,71,0.00,,,0.02,WUHU216HW,2013-02-17 03:31:00,
2013-02-16 22:36:00,23.1,15.1,30.11,WNW,293,0.0,4.0,71,0.00,,,0.02,WUHU216HW,2013-02-17 03:36:00,
2013-02-16 22:41:00,23.1,15.1,30.11,NW,315,3.3,3.3,71,0.00,,,0.02,WUHU216HW,2013-02-17 03:41:00,
2013-02-16 22:46:00,23.1,14.8,30.11,North,0,0.0,3.3,70,0.00,,,0.02,WUHU216HW,2013-02-17 03:46:00,
2013-02-16 22:51:00,23.1,14.8,30.11,WNW,293,0.0,3.5,70,0.00,,,0.02,WUHU216HW,2013-02-17 03:51:00,
2013-02-16 22:56:00,23.0,14.3,30.11,NW,315,0.0,3.5,69,0.00,,,0.02,WUHU216HW,2013-02-17 03:56:00,
2013-02-16 23:01:00,23.0,14.3,30.11,NNW,338,0.0,5.8,69,0.00,,,0.02,WUHU216HW,2013-02-17 04:01:00,
2013-02-16 23:06:00,22.8,13.8,30.11,NW,315,0.0,5.8,68,0.00,,,0.02,WUHU216HW,2013-02-17 04:06:00,
2013-02-16 23:11:00,22.8,13.8,30.11,NW,315,0.0,4.0,68,0.00,,,0.02,WUHU216HW,2013-02-17 04:11:00,
2013-02-16 23:16:00,22.8,13.8,30.11,WNW,293,2.2,4.4,68,0.00,,,0.02,WUHU216HW,2013-02-17 04:16:00,
2013-02-16 23:21:00,22.8,13.4,30.11,NW,315,0.0,4.4,67,0.00,,,0.02,WUHU216HW,2013-02-17 04:21:00,
2013-02-16 23:26:00,22.8,13.4,30.11,NNW,338,0.8,4.0,67,0.00,,,0.02,WUHU216HW,2013-02-17 04:26:00,
2013-02-16 23:31:00,22.8,13.1,30.11,NNW,338,0.0,7.6,66,0.00,,,0.02,WUHU216HW,2013-02-17 04:31:00,
2013-02-16 23:36:00,22.8,12.7,30.10,NNW,338,0.0,7.6,65,0.00,,,0.02,WUHU216HW,2013-02-17 04:36:00,
2013-02-16 23:41:00,22.8,12.7,30.10,West,270,4.4,7.3,65,0.00,,,0.02,WUHU216HW,2013-02-17 04:41:00,
2013-02-16 23:46:00,22.8,12.7,30.11,NNW,338,1.1,7.3,64,0.00,,,0.02,WUHU216HW,2013-02-17 04:46:00,
2013-02-16 23:51:00,22.8,12.7,30.10,North,0,7.3,7.3,65,0.00,,,0.02,WUHU216HW,2013-02-17 04:51:00,
2013-02-16 23:56:00,22.8,12.3,30.11,NNW,338,4.0,7.3,64,0.00,,,0.02,WUHU216HW,2013-02-17 04:56:00,